Time;durP1;ratioP1;P1;durP2;ratioP2;P2;SDS_P1;SDS_P2;PMS_P1;PMS_P2;Temp;Humidity;BMP_temperature;BMP_pressure;BME280_temperature;BME280_humidity;BME280_pressure;Samples;Min_cycle;Max_cycle;Signal;HPM_P1;HPM_P2
2023/12/17 00:01:21;;;;;;;2.45;0.88;;;;;;;;;;5052187;28;20021;-80
2023/12/17 00:03:47;;;;;;;1.70;0.82;;;;;;;;;;5052242;28;20547;-80
2023/12/17 00:06:12;;;;;;;1.45;1.08;;;;;;;;;;5050781;28;20039;-79
2023/12/17 00:08:38;;;;;;;1.50;1.13;;;;;;;;;;5082827;28;20059;-78
2023/12/17 00:11:03;;;;;;;1.10;0.80;;;;;;;;;;5052570;28;20108;-79
2023/12/17 00:13:29;;;;;;;8.20;1.73;;;;;;;;;;5050873;28;20497;-81
2023/12/17 00:15:54;;;;;;;1.50;1.23;;;;;;;;;;5051602;28;20028;-81
2023/12/17 00:18:20;;;;;;;2.38;1.23;;;;;;;;;;5048686;28;20031;-79
2023/12/17 00:20:45;;;;;;;2.05;1.08;;;;;;;;;;5050368;28;20025;-80
2023/12/17 00:23:11;;;;;;;1.02;0.75;;;;;;;;;;5050730;28;20365;-80
2023/12/17 00:25:36;;;;;;;0.82;0.80;;;;;;;;;;5052447;28;20029;-79
2023/12/17 00:28:02;;;;;;;1.25;1.15;;;;;;;;;;5048449;28;20028;-79
2023/12/17 00:30:28;;;;;;;1.52;1.33;;;;;;;;;;5049805;28;20460;-80
2023/12/17 00:32:53;;;;;;;0.32;0.32;;;;;;;;;;5049173;28;20029;-79
2023/12/17 00:35:18;;;;;;;2.15;1.35;;;;;;;;;;5050458;28;20481;-80
2023/12/17 00:37:44;;;;;;;1.27;1.17;;;;;;;;;;5050492;28;20029;-81
2023/12/17 00:40:10;;;;;;;1.50;0.82;;;;;;;;;;5050488;28;20108;-79
2023/12/17 00:42:35;;;;;;;0.77;0.77;;;;;;;;;;5049197;28;20032;-80
2023/12/17 00:45:01;;;;;;;3.45;1.20;;;;;;;;;;5052634;28;20021;-79
2023/12/17 00:47:27;;;;;;;0.45;0.45;;;;;;;;;;5051440;28;20037;-79
2023/12/17 00:49:53;;;;;;;0.25;0.25;;;;;;;;;;5051479;28;20159;-78
2023/12/17 00:52:20;;;;;;;2.13;0.50;;;;;;;;;;5050213;28;20186;-79
2023/12/17 00:54:46;;;;;;;1.58;0.95;;;;;;;;;;5052241;28;20025;-78
2023/12/17 00:57:11;;;;;;;1.02;0.93;;;;;;;;;;5049183;28;20047;-79
2023/12/17 00:59:37;;;;;;;0.35;0.35;;;;;;;;;;5050628;28;20489;-80
2023/12/17 01:02:02;;;;;;;0.93;0.93;;;;;;;;;;5050625;28;20029;-79
2023/12/17 01:04:28;;;;;;;1.50;0.95;;;;;;;;;;5053311;28;20056;-79
2023/12/17 01:06:53;;;;;;;1.60;1.05;;;;;;;;;;5051506;28;20032;-82
2023/12/17 01:09:19;;;;;;;0.65;0.65;;;;;;;;;;5048879;28;20037;-80
2023/12/17 01:11:44;;;;;;;1.65;1.20;;;;;;;;;;5051189;28;20033;-80
2023/12/17 01:14:10;;;;;;;0.30;0.30;;;;;;;;;;5049451;28;20506;-79
2023/12/17 01:16:35;;;;;;;0.50;0.50;;;;;;;;;;5051224;28;20021;-79
2023/12/17 01:19:01;;;;;;;0.85;0.85;;;;;;;;;;5048496;28;20029;-80
2023/12/17 01:21:29;;;;;;;1.70;1.60;;;;;;;;;;5049884;28;20135;-80
2023/12/17 01:23:57;;;;;;;0.63;0.60;;;;;;;;;;5051154;28;20016;-78
2023/12/17 01:26:23;;;;;;;0.40;0.40;;;;;;;;;;5047657;28;20105;-79
2023/12/17 01:28:51;;;;;;;0.77;0.63;;;;;;;;;;5049532;28;20044;-79
2023/12/17 01:31:17;;;;;;;0.60;0.60;;;;;;;;;;5081492;28;20047;-80
2023/12/17 01:33:42;;;;;;;1.45;1.02;;;;;;;;;;5049595;28;20029;-80
2023/12/17 01:36:08;;;;;;;1.65;0.85;;;;;;;;;;5051431;28;20025;-79
2023/12/17 01:38:33;;;;;;;0.68;0.68;;;;;;;;;;5048402;28;20554;-80
2023/12/17 01:40:59;;;;;;;0.25;0.22;;;;;;;;;;5051555;28;20647;-79
2023/12/17 01:43:24;;;;;;;1.23;0.77;;;;;;;;;;5048461;28;20477;-80
2023/12/17 01:45:54;;;;;;;1.77;1.67;;;;;;;;;;5048929;28;20037;-80
2023/12/17 01:48:28;;;;;;;0.73;0.73;;;;;;;;;;5049931;28;20036;-79
2023/12/17 01:50:57;;;;;;;0.20;0.20;;;;;;;;;;5054120;28;20028;-78
2023/12/17 01:53:24;;;;;;;1.02;1.02;;;;;;;;;;5052719;28;20476;-79
2023/12/17 01:55:53;;;;;;;0.40;0.40;;;;;;;;;;5055158;28;20048;-80
2023/12/17 01:58:30;;;;;;;1.00;0.98;;;;;;;;;;5053192;28;20052;-79
2023/12/17 02:00:59;;;;;;;0.90;0.90;;;;;;;;;;5084659;28;20505;-78
2023/12/17 02:03:37;;;;;;;0.77;0.55;;;;;;;;;;5054650;28;20388;-79
2023/12/17 02:06:08;;;;;;;1.58;0.80;;;;;;;;;;5051297;28;20083;-80
2023/12/17 02:08:43;;;;;;;0.40;0.40;;;;;;;;;;5050032;28;20040;-81
2023/12/17 02:11:18;;;;;;;0.30;0.30;;;;;;;;;;5052516;28;20511;-79
2023/12/17 02:13:49;;;;;;;0.75;0.63;;;;;;;;;;5033023;28;20485;-78
2023/12/17 02:16:30;;;;;;;0.22;0.22;;;;;;;;;;5033087;28;20037;-81
2023/12/17 02:19:09;;;;;;;1.95;0.82;;;;;;;;;;5049428;28;21759;-79
2023/12/17 02:21:43;;;;;;;0.53;0.50;;;;;;;;;;5047850;28;20033;-80
2023/12/17 02:24:13;;;;;;;0.40;0.40;;;;;;;;;;5048834;28;20776;-80
2023/12/17 02:27:27;;;;;;;1.15;0.98;;;;;;;;;;5065110;28;20048;-79
2023/12/17 02:30:15;;;;;;;0.43;0.43;;;;;;;;;;4993565;28;20504;-79
2023/12/17 02:33:05;;;;;;;;;;;;;;;;;;;;;
2023/12/17 02:36:15;;;;;;;0.75;0.70;;;;;;;;;;5049538;28;20417;-80
2023/12/17 02:38:50;;;;;;;;;;;;;;;;;;5049602;28;20373;-80
2023/12/17 02:41:27;;;;;;;0.30;0.30;;;;;;;;;;5049932;28;19927;-82
2023/12/17 02:44:07;;;;;;;0.40;0.40;;;;;;;;;;5051308;28;20432;-82
2023/12/17 02:46:39;;;;;;;0.38;0.38;;;;;;;;;;5058362;28;20113;-80
2023/12/17 02:49:15;;;;;;;0.50;0.50;;;;;;;;;;5055188;28;20040;-79
2023/12/17 02:54:43;;;;;;;1.73;1.00;;;;;;;;;;5058537;28;20460;-81
2023/12/17 02:57:09;;;;;;;0.75;0.75;;;;;;;;;;5052697;28;20049;-80
2023/12/17 02:59:48;;;;;;;0.30;0.30;;;;;;;;;;5056923;28;21028;-80
2023/12/17 03:02:23;;;;;;;0.77;0.77;;;;;;;;;;5054222;28;20365;-79
2023/12/17 03:08:19;;;;;;;0.57;0.57;;;;;;;;;;5050093;28;20083;-79
2023/12/17 03:10:54;;;;;;;0.93;0.93;;;;;;;;;;5086664;28;20123;-79
2023/12/17 03:13:36;;;;;;;0.68;0.68;;;;;;;;;;5053892;28;20033;-80
2023/12/17 03:16:08;;;;;;;0.85;0.68;;;;;;;;;;5055702;28;20120;-79
2023/12/17 03:18:57;;;;;;;0.50;0.50;;;;;;;;;;5054460;28;20432;-79
2023/12/17 03:21:56;;;;;;;1.38;1.27;;;;;;;;;;5052002;28;20043;-79
2023/12/17 03:24:46;;;;;;;1.08;0.63;;;;;;;;;;5054942;28;20041;-79
2023/12/17 03:27:15;;;;;;;0.63;0.50;;;;;;;;;;5055298;28;20021;-78
2023/12/17 03:29:53;;;;;;;0.70;0.63;;;;;;;;;;5050211;28;20037;-79
2023/12/17 03:32:18;;;;;;;0.30;0.30;;;;;;;;;;5054464;28;20032;-78
2023/12/17 03:34:47;;;;;;;0.40;0.40;;;;;;;;;;5055502;28;20362;-79
2023/12/17 03:37:16;;;;;;;0.73;0.73;;;;;;;;;;5053479;28;20024;-79
2023/12/17 03:39:50;;;;;;;0.85;0.77;;;;;;;;;;5058134;28;20090;-79
2023/12/17 03:42:39;;;;;;;0.40;0.40;;;;;;;;;;5057075;28;20162;-79
2023/12/17 03:45:05;;;;;;;0.50;0.50;;;;;;;;;;5056592;28;20531;-79
2023/12/17 03:47:33;;;;;;;0.22;0.22;;;;;;;;;;5052359;28;20052;-79
2023/12/17 03:50:19;;;;;;;0.32;0.32;;;;;;;;;;5055934;28;20481;-79
2023/12/17 03:52:46;;;;;;;0.60;0.60;;;;;;;;;;5053892;28;20055;-81
2023/12/17 03:55:16;;;;;;;0.68;0.60;;;;;;;;;;5053940;28;20199;-81
2023/12/17 03:57:42;;;;;;;0.55;0.32;;;;;;;;;;5054337;28;20500;-80
2023/12/17 04:00:23;;;;;;;0.40;0.40;;;;;;;;;;5052147;28;20040;-79
2023/12/17 04:03:15;;;;;;;0.57;0.50;;;;;;;;;;5053000;28;20040;-78
2023/12/17 04:05:49;;;;;;;0.60;0.50;;;;;;;;;;5057391;28;20038;-79
2023/12/17 04:08:15;;;;;;;0.68;0.68;;;;;;;;;;5054987;28;20056;-79
2023/12/17 04:10:47;;;;;;;1.25;1.10;;;;;;;;;;5052859;28;21488;-79
2023/12/17 04:13:19;;;;;;;0.77;0.63;;;;;;;;;;5048558;28;20418;-79
2023/12/17 04:15:44;;;;;;;1.05;1.00;;;;;;;;;;5071743;28;20083;-79
2023/12/17 04:18:32;;;;;;;0.47;0.47;;;;;;;;;;5054553;28;20540;-78
2023/12/17 04:21:15;;;;;;;1.77;0.52;;;;;;;;;;5055385;28;20078;-80
2023/12/17 04:23:44;;;;;;;0.30;0.30;;;;;;;;;;5055444;28;20067;-80
2023/12/17 04:26:12;;;;;;;0.40;0.40;;;;;;;;;;5055367;28;20099;-78
2023/12/17 04:29:02;;;;;;;0.43;0.43;;;;;;;;;;5053368;28;20032;-78
2023/12/17 04:31:27;;;;;;;0.60;0.50;;;;;;;;;;5055708;28;20036;-82
2023/12/17 04:34:05;;;;;;;0.60;0.60;;;;;;;;;;5056448;28;20044;-79
2023/12/17 04:36:30;;;;;;;1.98;1.15;;;;;;;;;;5054990;28;20374;-79
2023/12/17 04:39:35;;;;;;;0.65;0.65;;;;;;;;;;5055082;28;20508;-79
2023/12/17 04:42:01;;;;;;;0.98;0.90;;;;;;;;;;5024198;28;20041;-79
2023/12/17 04:45:07;;;;;;;0.80;0.60;;;;;;;;;;5055295;28;20033;-81
2023/12/17 04:47:33;;;;;;;0.95;0.52;;;;;;;;;;5056501;28;20124;-79
2023/12/17 04:49:59;;;;;;;1.42;0.93;;;;;;;;;;5057392;28;20115;-79
2023/12/17 04:52:25;;;;;;;0.63;0.63;;;;;;;;;;5055654;28;20544;-78
2023/12/17 04:54:50;;;;;;;1.02;1.02;;;;;;;;;;5059016;28;20107;-79
2023/12/17 04:57:16;;;;;;;0.68;0.68;;;;;;;;;;5053873;28;20127;-77
2023/12/17 04:59:41;;;;;;;1.10;0.70;;;;;;;;;;5056812;28;20476;-81
2023/12/17 05:02:07;;;;;;;0.90;0.75;;;;;;;;;;5052361;28;20036;-80
2023/12/17 05:04:32;;;;;;;0.77;0.77;;;;;;;;;;5056373;28;20118;-79
2023/12/17 05:06:58;;;;;;;0.93;0.63;;;;;;;;;;5047579;28;20098;-82
2023/12/17 05:09:23;;;;;;;0.43;0.43;;;;;;;;;;5047871;28;20032;-78
2023/12/17 05:11:49;;;;;;;1.30;1.23;;;;;;;;;;5047508;28;20037;-78
2023/12/17 05:14:15;;;;;;;0.50;0.50;;;;;;;;;;5048817;28;20029;-79
2023/12/17 05:16:41;;;;;;;0.30;0.30;;;;;;;;;;5048860;28;20592;-80
2023/12/17 05:19:07;;;;;;;1.20;1.10;;;;;;;;;;5050727;28;20778;-80
2023/12/17 05:21:32;;;;;;;1.85;0.70;;;;;;;;;;5047988;28;20021;-79
2023/12/17 05:23:58;;;;;;;0.73;0.63;;;;;;;;;;5050174;28;20037;-81
2023/12/17 05:26:23;;;;;;;3.40;1.35;;;;;;;;;;5051387;28;20036;-78
2023/12/17 05:28:51;;;;;;;1.65;0.95;;;;;;;;;;5050269;28;20066;-80
2023/12/17 05:31:16;;;;;;;0.30;0.30;;;;;;;;;;5049147;28;20060;-77
2023/12/17 05:33:43;;;;;;;1.35;0.85;;;;;;;;;;5046688;28;20060;-78
2023/12/17 05:36:14;;;;;;;0.68;0.63;;;;;;;;;;5050462;28;20377;-80
2023/12/17 05:38:40;;;;;;;0.50;0.50;;;;;;;;;;5049898;28;20032;-79
2023/12/17 05:41:05;;;;;;;0.65;0.52;;;;;;;;;;5050804;28;20036;-78
2023/12/17 05:43:31;;;;;;;0.77;0.77;;;;;;;;;;5051082;28;20063;-78
2023/12/17 05:45:56;;;;;;;1.90;1.00;;;;;;;;;;5049713;28;20029;-78
2023/12/17 05:48:22;;;;;;;0.35;0.35;;;;;;;;;;5047650;28;20385;-78
2023/12/17 05:50:47;;;;;;;0.60;0.60;;;;;;;;;;5049300;28;20029;-79
2023/12/17 05:53:13;;;;;;;0.60;0.60;;;;;;;;;;5051090;28;20413;-80
2023/12/17 05:55:38;;;;;;;0.52;0.52;;;;;;;;;;5049305;28;20032;-78
2023/12/17 05:58:04;;;;;;;0.85;0.85;;;;;;;;;;5048391;28;20041;-78
2023/12/17 06:00:32;;;;;;;0.43;0.43;;;;;;;;;;5053330;28;20407;-79
2023/12/17 06:02:57;;;;;;;0.60;0.60;;;;;;;;;;5049799;28;20036;-80
2023/12/17 06:05:26;;;;;;;2.70;1.35;;;;;;;;;;5047438;28;20037;-78
2023/12/17 06:07:51;;;;;;;4.00;1.75;;;;;;;;;;5047797;28;20040;-81
2023/12/17 06:10:17;;;;;;;1.27;0.73;;;;;;;;;;5049679;28;20040;-78
2023/12/17 06:12:42;;;;;;;0.25;0.25;;;;;;;;;;5049245;28;20116;-79
2023/12/17 06:15:08;;;;;;;1.25;0.75;;;;;;;;;;5049116;28;20112;-78
2023/12/17 06:17:34;;;;;;;1.30;0.75;;;;;;;;;;5052211;28;20028;-79
2023/12/17 06:20:04;;;;;;;2.90;0.98;;;;;;;;;;5051634;28;20439;-80
2023/12/17 06:22:31;;;;;;;0.20;0.20;;;;;;;;;;5048458;28;20092;-80
2023/12/17 06:25:00;;;;;;;1.55;1.30;;;;;;;;;;5050499;28;20037;-77
2023/12/17 06:27:25;;;;;;;0.73;0.73;;;;;;;;;;5047746;28;20051;-78
2023/12/17 06:29:52;;;;;;;1.02;0.63;;;;;;;;;;5048333;28;20456;-80
2023/12/17 06:32:17;;;;;;;1.02;0.95;;;;;;;;;;5049165;28;20017;-78
2023/12/17 06:34:43;;;;;;;1.13;1.08;;;;;;;;;;5048954;28;20082;-78
2023/12/17 06:37:10;;;;;;;0.85;0.38;;;;;;;;;;5052140;28;20025;-79
2023/12/17 06:39:35;;;;;;;0.60;0.60;;;;;;;;;;5053520;28;20036;-79
2023/12/17 06:42:01;;;;;;;0.20;0.20;;;;;;;;;;5053158;28;20032;-79
2023/12/17 06:44:26;;;;;;;0.38;0.38;;;;;;;;;;5052322;28;20468;-79
2023/12/17 06:46:55;;;;;;;1.02;0.68;;;;;;;;;;5050684;28;20025;-79
2023/12/17 06:49:20;;;;;;;0.45;0.45;;;;;;;;;;5051492;28;20629;-76
2023/12/17 06:51:46;;;;;;;0.90;0.90;;;;;;;;;;5051420;28;20021;-78
2023/12/17 06:54:11;;;;;;;0.50;0.50;;;;;;;;;;5052733;28;20052;-77
2023/12/17 06:56:36;;;;;;;1.02;0.98;;;;;;;;;;5049590;28;20056;-79
2023/12/17 06:59:02;;;;;;;0.98;0.98;;;;;;;;;;5054531;28;20060;-79
2023/12/17 07:01:28;;;;;;;1.25;1.20;;;;;;;;;;5050192;28;20067;-78
2023/12/17 07:03:53;;;;;;;1.52;1.42;;;;;;;;;;5049992;28;20086;-81
2023/12/17 07:06:18;;;;;;;1.38;1.20;;;;;;;;;;5052474;28;20029;-78
2023/12/17 07:08:44;;;;;;;0.60;0.60;;;;;;;;;;5052018;28;20028;-77
2023/12/17 07:11:11;;;;;;;0.75;0.75;;;;;;;;;;5050327;28;20036;-78
2023/12/17 07:13:36;;;;;;;1.17;1.17;;;;;;;;;;5050703;28;20071;-77
2023/12/17 07:16:02;;;;;;;0.82;0.82;;;;;;;;;;5050595;28;20048;-76
2023/12/17 07:18:27;;;;;;;3.65;0.70;;;;;;;;;;5049753;28;20366;-78
2023/12/17 07:20:53;;;;;;;1.33;1.23;;;;;;;;;;5049758;28;20452;-76
2023/12/17 07:23:22;;;;;;;2.05;1.27;;;;;;;;;;5048606;28;20060;-79
2023/12/17 07:25:47;;;;;;;1.50;1.40;;;;;;;;;;5050840;28;20029;-79
2023/12/17 07:28:12;;;;;;;0.98;0.98;;;;;;;;;;5049268;28;20033;-78
2023/12/17 07:30:38;;;;;;;2.28;2.10;;;;;;;;;;5039696;28;20029;-78
2023/12/17 07:33:08;;;;;;;0.98;0.82;;;;;;;;;;5047189;28;20392;-78
2023/12/17 07:35:34;;;;;;;2.60;1.60;;;;;;;;;;5048540;28;20021;-78
2023/12/17 07:37:59;;;;;;;1.38;1.27;;;;;;;;;;5052015;28;20083;-78
2023/12/17 07:40:25;;;;;;;3.50;2.80;;;;;;;;;;5048100;28;20453;-77
2023/12/17 07:42:50;;;;;;;1.33;1.27;;;;;;;;;;5048762;28;20142;-76
2023/12/17 07:45:16;;;;;;;1.90;1.17;;;;;;;;;;5047999;28;20048;-77
2023/12/17 07:47:41;;;;;;;1.05;1.05;;;;;;;;;;5050041;28;20025;-75
2023/12/17 07:50:08;;;;;;;1.70;1.27;;;;;;;;;;5045699;28;20053;-78
2023/12/17 07:52:35;;;;;;;3.00;1.52;;;;;;;;;;5046968;28;20035;-78
2023/12/17 07:55:01;;;;;;;2.08;1.40;;;;;;;;;;5041662;28;20040;-77
2023/12/17 07:57:26;;;;;;;1.85;1.75;;;;;;;;;;5046740;28;20049;-77
2023/12/17 07:59:52;;;;;;;2.28;2.08;;;;;;;;;;5042667;28;20098;-79
2023/12/17 08:02:17;;;;;;;3.03;1.95;;;;;;;;;;5045006;28;20427;-76
2023/12/17 08:04:45;;;;;;;1.48;1.15;;;;;;;;;;5044928;28;20405;-77
2023/12/17 08:07:10;;;;;;;2.22;1.38;;;;;;;;;;5047150;28;20040;-78
2023/12/17 08:09:36;;;;;;;0.22;0.22;;;;;;;;;;5050714;28;20040;-77
2023/12/17 08:12:02;;;;;;;1.58;1.48;;;;;;;;;;5050192;28;20047;-78
2023/12/17 08:14:28;;;;;;;0.52;0.52;;;;;;;;;;5051034;28;20072;-77
2023/12/17 08:16:56;;;;;;;1.23;1.13;;;;;;;;;;5052450;28;20033;-78
2023/12/17 08:19:21;;;;;;;2.08;1.42;;;;;;;;;;5052348;28;20047;-78
2023/12/17 08:21:47;;;;;;;1.23;0.85;;;;;;;;;;5050757;28;20021;-76
2023/12/17 08:24:12;;;;;;;0.45;0.45;;;;;;;;;;5048147;28;20028;-80
2023/12/17 08:26:38;;;;;;;1.17;0.63;;;;;;;;;;5049994;28;20021;-77
2023/12/17 08:29:03;;;;;;;1.45;1.35;;;;;;;;;;5050425;28;20431;-78
2023/12/17 08:31:29;;;;;;;3.08;2.38;;;;;;;;;;5050255;28;20519;-78
2023/12/17 08:33:54;;;;;;;2.10;2.00;;;;;;;;;;5050187;28;20032;-79
2023/12/17 08:36:22;;;;;;;1.00;0.95;;;;;;;;;;5049648;28;20480;-79
2023/12/17 08:38:48;;;;;;;2.60;1.60;;;;;;;;;;5048693;28;20055;-78
2023/12/17 08:41:13;;;;;;;3.97;1.13;;;;;;;;;;5047795;28;20056;-77
2023/12/17 08:43:39;;;;;;;0.57;0.57;;;;;;;;;;5049651;28;20461;-76
2023/12/17 08:46:04;;;;;;;1.38;1.02;;;;;;;;;;5049305;28;20064;-77
2023/12/17 08:48:30;;;;;;;2.33;1.23;;;;;;;;;;5049028;28;20540;-77
2023/12/17 08:50:55;;;;;;;1.33;1.23;;;;;;;;;;5049897;28;20031;-78
2023/12/17 08:53:23;;;;;;;0.70;0.70;;;;;;;;;;5048322;28;20107;-78
2023/12/17 08:55:52;;;;;;;0.77;0.77;;;;;;;;;;5050235;28;20056;-78
2023/12/17 08:58:17;;;;;;;1.33;1.23;;;;;;;;;;5046307;28;20063;-76
2023/12/17 09:00:42;;;;;;;0.68;0.68;;;;;;;;;;5048939;28;20037;-77
2023/12/17 09:03:08;;;;;;;1.30;1.25;;;;;;;;;;5048872;28;20029;-77
2023/12/17 09:05:35;;;;;;;2.45;1.67;;;;;;;;;;5049375;28;20039;-79
2023/12/17 09:08:01;;;;;;;0.85;0.85;;;;;;;;;;5048038;28;21645;-77
2023/12/17 09:10:26;;;;;;;11.38;3.05;;;;;;;;;;5049090;28;20020;-80
2023/12/17 09:12:52;;;;;;;2.45;2.35;;;;;;;;;;5045272;28;20099;-77
2023/12/17 09:15:17;;;;;;;1.25;1.15;;;;;;;;;;5048798;28;20059;-77
2023/12/17 09:17:43;;;;;;;0.80;0.80;;;;;;;;;;5049144;28;20029;-77
2023/12/17 09:20:09;;;;;;;1.48;1.33;;;;;;;;;;5048298;28;20051;-76
2023/12/17 09:22:34;;;;;;;1.25;1.25;;;;;;;;;;5048536;28;20024;-77
2023/12/17 09:25:00;;;;;;;1.65;1.35;;;;;;;;;;5048675;28;20285;-77
2023/12/17 09:27:25;;;;;;;1.65;1.55;;;;;;;;;;5046393;28;20025;-76
2023/12/17 09:29:51;;;;;;;0.40;0.40;;;;;;;;;;5046894;28;20102;-78
2023/12/17 09:32:17;;;;;;;1.83;1.73;;;;;;;;;;5048266;28;20053;-76
2023/12/17 09:34:42;;;;;;;5.40;2.28;;;;;;;;;;5048534;28;20029;-76
2023/12/17 09:37:08;;;;;;;1.45;1.20;;;;;;;;;;5046749;28;20075;-75
2023/12/17 09:39:33;;;;;;;1.88;1.20;;;;;;;;;;5048674;28;20075;-75
2023/12/17 09:41:59;;;;;;;1.23;1.13;;;;;;;;;;5048953;28;20029;-77
2023/12/17 09:44:26;;;;;;;1.17;1.13;;;;;;;;;;5046596;28;20036;-75
2023/12/17 09:46:51;;;;;;;0.88;0.77;;;;;;;;;;5048606;28;20033;-76
2023/12/17 09:49:17;;;;;;;4.13;1.27;;;;;;;;;;5045056;28;20040;-77
2023/12/17 09:51:46;;;;;;;3.55;2.47;;;;;;;;;;5047841;28;20063;-77
2023/12/17 09:54:12;;;;;;;1.90;1.40;;;;;;;;;;5052924;28;20044;-76
2023/12/17 09:56:46;;;;;;;2.10;1.90;;;;;;;;;;5048470;28;20472;-76
2023/12/17 09:59:12;;;;;;;2.95;1.90;;;;;;;;;;5047086;28;20033;-76
2023/12/17 10:01:37;;;;;;;3.00;2.80;;;;;;;;;;5047058;28;20040;-77
2023/12/17 10:04:03;;;;;;;4.68;1.88;;;;;;;;;;5048513;28;20021;-76
2023/12/17 10:06:28;;;;;;;2.08;1.88;;;;;;;;;;5048142;28;20033;-74
2023/12/17 10:08:56;;;;;;;7.53;2.42;;;;;;;;;;5048135;28;20160;-75
2023/12/17 10:11:23;;;;;;;2.50;1.83;;;;;;;;;;5051094;28;20029;-76
2023/12/17 10:13:51;;;;;;;1.52;1.05;;;;;;;;;;5052260;28;20036;-76
2023/12/17 10:16:16;;;;;;;1.55;1.00;;;;;;;;;;5050264;28;20067;-76
2023/12/17 10:18:47;;;;;;;3.28;1.45;;;;;;;;;;5052254;28;20481;-76
2023/12/17 10:21:13;;;;;;;4.78;3.40;;;;;;;;;;5052000;28;20029;-75
2023/12/17 10:23:49;;;;;;;1.95;1.77;;;;;;;;;;5052314;28;20047;-76
2023/12/17 10:26:14;;;;;;;1.38;1.30;;;;;;;;;;5050498;28;20033;-77
2023/12/17 10:28:46;;;;;;;4.30;2.50;;;;;;;;;;5051030;28;20081;-76
2023/12/17 10:31:14;;;;;;;0.93;0.90;;;;;;;;;;5051773;28;20052;-75
2023/12/17 10:33:56;;;;;;;3.47;1.83;;;;;;;;;;5050461;28;20028;-75
2023/12/17 10:36:22;;;;;;;1.33;1.25;;;;;;;;;;5051607;28;20481;-79
2023/12/17 10:38:49;;;;;;;5.80;2.55;;;;;;;;;;5051573;28;20454;-77
2023/12/17 10:41:16;;;;;;;0.40;0.40;;;;;;;;;;5051705;28;20028;-76
2023/12/17 10:43:43;;;;;;;1.98;1.88;;;;;;;;;;5051492;28;20037;-75
2023/12/17 10:46:10;;;;;;;3.63;2.38;;;;;;;;;;5051354;28;20127;-77
2023/12/17 10:48:36;;;;;;;1.52;1.42;;;;;;;;;;5051563;28;20031;-76
2023/12/17 10:51:02;;;;;;;1.52;1.38;;;;;;;;;;5050114;28;20025;-78
2023/12/17 10:53:27;;;;;;;2.05;1.90;;;;;;;;;;5051336;28;20385;-76
2023/12/17 10:55:53;;;;;;;2.55;1.85;;;;;;;;;;5051344;28;20028;-75
2023/12/17 10:58:22;;;;;;;4.72;2.17;;;;;;;;;;5051504;28;20049;-75
2023/12/17 11:00:49;;;;;;;3.78;1.60;;;;;;;;;;5050285;28;20029;-78
2023/12/17 11:03:16;;;;;;;2.05;1.88;;;;;;;;;;5051138;28;20033;-76
2023/12/17 11:05:58;;;;;;;2.50;2.03;;;;;;;;;;5049431;28;20111;-77
2023/12/17 11:08:25;;;;;;;2.95;2.75;;;;;;;;;;5049704;28;20040;-77
2023/12/17 11:10:51;;;;;;;2.45;1.75;;;;;;;;;;5050171;28;20040;-77
2023/12/17 11:13:21;;;;;;;1.77;1.67;;;;;;;;;;5049570;28;20072;-76
2023/12/17 11:15:47;;;;;;;;;;;;;;;;;;5049463;28;20029;-78
2023/12/17 11:18:15;;;;;;;4.00;2.80;;;;;;;;;;5050680;28;19982;-79
2023/12/17 11:20:41;;;;;;;1.98;1.77;;;;;;;;;;5049148;28;20028;-78
2023/12/17 11:23:06;;;;;;;1.98;1.80;;;;;;;;;;5050476;28;20503;-78
2023/12/17 11:25:34;;;;;;;3.60;2.80;;;;;;;;;;5050651;28;20029;-79
2023/12/17 11:28:00;;;;;;;1.63;1.52;;;;;;;;;;5049502;28;20029;-77
2023/12/17 11:30:30;;;;;;;1.52;1.27;;;;;;;;;;5051196;28;20029;-76
2023/12/17 11:33:00;;;;;;;3.20;2.40;;;;;;;;;;5049258;28;20028;-78
2023/12/17 11:35:28;;;;;;;2.83;2.00;;;;;;;;;;5050589;28;20397;-78
2023/12/17 11:37:54;;;;;;;4.22;2.13;;;;;;;;;;5049166;28;20087;-79
2023/12/17 11:40:20;;;;;;;7.05;2.53;;;;;;;;;;5050564;28;20472;-78
2023/12/17 11:43:03;;;;;;;2.70;2.35;;;;;;;;;;5049952;28;20037;-80
2023/12/17 11:45:47;;;;;;;1.83;1.73;;;;;;;;;;5049474;28;20621;-78
2023/12/17 11:48:14;;;;;;;2.05;1.80;;;;;;;;;;5048451;28;20032;-77
2023/12/17 11:50:54;;;;;;;1.85;1.58;;;;;;;;;;5049104;28;20781;-81
2023/12/17 11:53:24;;;;;;;4.18;3.22;;;;;;;;;;5051044;28;20535;-78
2023/12/17 11:55:52;;;;;;;3.35;3.00;;;;;;;;;;5047808;28;20040;-78
2023/12/17 11:58:22;;;;;;;2.42;1.88;;;;;;;;;;5050478;28;20090;-79
2023/12/17 12:01:06;;;;;;;3.30;2.90;;;;;;;;;;5050932;28;20061;-77
2023/12/17 12:03:32;;;;;;;2.20;1.30;;;;;;;;;;5049427;28;20041;-78
2023/12/17 12:06:07;;;;;;;9.52;2.20;;;;;;;;;;5050531;28;20025;-78
2023/12/17 12:08:34;;;;;;;6.15;3.22;;;;;;;;;;5050623;28;20039;-77
2023/12/17 12:11:02;;;;;;;2.25;2.00;;;;;;;;;;5049399;28;20055;-76
2023/12/17 12:13:28;;;;;;;3.40;2.80;;;;;;;;;;5050446;28;20037;-76
2023/12/17 12:15:59;;;;;;;1.15;1.10;;;;;;;;;;5050259;28;20048;-77
2023/12/17 12:18:25;;;;;;;3.55;3.28;;;;;;;;;;5049316;28;20039;-77
2023/12/17 12:20:50;;;;;;;8.60;3.45;;;;;;;;;;5048483;28;20037;-77
2023/12/17 12:23:16;;;;;;;1.45;1.27;;;;;;;;;;5049554;28;20036;-78
2023/12/17 12:25:42;;;;;;;4.13;2.15;;;;;;;;;;5048936;28;20028;-78
2023/12/17 12:28:19;;;;;;;2.30;2.10;;;;;;;;;;5045515;28;20030;-80
2023/12/17 12:30:47;;;;;;;2.75;1.92;;;;;;;;;;5046458;28;20037;-80
2023/12/17 12:33:14;;;;;;;1.70;1.60;;;;;;;;;;5046938;28;20106;-80
2023/12/17 12:35:48;;;;;;;3.25;2.30;;;;;;;;;;5047830;28;20032;-78
2023/12/17 12:38:23;;;;;;;4.82;2.88;;;;;;;;;;5048839;28;20028;-76
2023/12/17 12:40:55;;;;;;;4.25;3.67;;;;;;;;;;5049184;28;20837;-77
2023/12/17 12:43:25;;;;;;;2.47;2.28;;;;;;;;;;5049355;28;20029;-78
2023/12/17 12:45:53;;;;;;;4.25;1.90;;;;;;;;;;5047813;28;20025;-77
2023/12/17 12:48:24;;;;;;;1.85;1.75;;;;;;;;;;5048365;28;20086;-79
2023/12/17 12:50:50;;;;;;;4.97;2.50;;;;;;;;;;5048481;28;20044;-77
2023/12/17 12:53:18;;;;;;;3.58;2.50;;;;;;;;;;5047017;28;20029;-78
2023/12/17 12:55:44;;;;;;;5.00;1.92;;;;;;;;;;5048948;28;20027;-78
2023/12/17 12:58:11;;;;;;;5.10;2.63;;;;;;;;;;5049676;28;20052;-77
2023/12/17 13:00:36;;;;;;;4.22;3.10;;;;;;;;;;5049512;28;20074;-78
2023/12/17 13:03:02;;;;;;;3.47;2.20;;;;;;;;;;5048968;28;20025;-77
2023/12/17 13:05:27;;;;;;;2.70;2.45;;;;;;;;;;5049529;28;20029;-78
2023/12/17 13:07:53;;;;;;;5.07;2.38;;;;;;;;;;5049568;28;20116;-80
2023/12/17 13:10:18;;;;;;;3.97;3.58;;;;;;;;;;5047395;28;20020;-81
2023/12/17 13:12:43;;;;;;;4.93;3.10;;;;;;;;;;5046563;28;20028;-80
2023/12/17 13:15:10;;;;;;;2.65;2.45;;;;;;;;;;5046985;28;20024;-79
2023/12/17 13:17:35;;;;;;;5.45;1.75;;;;;;;;;;5047724;28;20045;-78
2023/12/17 13:20:01;;;;;;;3.65;3.13;;;;;;;;;;5049410;28;20084;-77
2023/12/17 13:22:27;;;;;;;5.35;3.33;;;;;;;;;;5047478;28;20407;-78
2023/12/17 13:24:52;;;;;;;4.95;1.98;;;;;;;;;;5049276;28;20032;-79
2023/12/17 13:27:18;;;;;;;8.05;4.68;;;;;;;;;;5049190;28;20033;-79
2023/12/17 13:29:43;;;;;;;1.88;1.30;;;;;;;;;;5049188;28;20388;-80
2023/12/17 13:32:09;;;;;;;4.97;2.92;;;;;;;;;;5049092;28;20760;-80
2023/12/17 13:34:34;;;;;;;4.15;2.38;;;;;;;;;;5049276;28;20077;-78
2023/12/17 13:36:59;;;;;;;3.28;1.88;;;;;;;;;;5047976;28;20111;-78
2023/12/17 13:39:25;;;;;;;1.27;1.17;;;;;;;;;;5046713;28;20021;-78
2023/12/17 13:41:50;;;;;;;3.47;2.95;;;;;;;;;;5047920;28;20789;-78
2023/12/17 13:44:16;;;;;;;3.13;2.65;;;;;;;;;;5049176;28;20025;-79
2023/12/17 13:46:41;;;;;;;2.78;2.55;;;;;;;;;;5047620;28;20040;-78
2023/12/17 13:49:07;;;;;;;2.05;1.95;;;;;;;;;;5048970;28;20111;-78
2023/12/17 13:51:33;;;;;;;2.55;2.33;;;;;;;;;;5049065;28;20392;-78
2023/12/17 13:53:58;;;;;;;5.10;3.28;;;;;;;;;;5047753;28;20020;-78
2023/12/17 13:56:25;;;;;;;4.50;3.22;;;;;;;;;;5049108;28;20025;-78
2023/12/17 13:58:50;;;;;;;3.75;3.30;;;;;;;;;;5049516;28;20386;-79
2023/12/17 14:01:20;;;;;;;6.82;3.92;;;;;;;;;;5047636;28;20025;-78
2023/12/17 14:03:45;;;;;;;4.93;2.47;;;;;;;;;;5048849;28;20052;-78
2023/12/17 14:06:14;;;;;;;4.82;3.65;;;;;;;;;;5048818;28;20403;-78
2023/12/17 14:08:40;;;;;;;4.05;2.38;;;;;;;;;;5049107;28;20025;-79
2023/12/17 14:11:06;;;;;;;7.22;3.55;;;;;;;;;;5046421;28;20029;-79
2023/12/17 14:13:31;;;;;;;5.55;3.95;;;;;;;;;;5046703;28;20123;-78
2023/12/17 14:15:58;;;;;;;2.60;2.42;;;;;;;;;;5043769;28;20478;-77
2023/12/17 14:18:23;;;;;;;3.83;3.33;;;;;;;;;;5045528;28;20033;-79
2023/12/17 14:20:49;;;;;;;2.70;1.48;;;;;;;;;;5045827;28;20039;-77
2023/12/17 14:23:14;;;;;;;4.00;3.40;;;;;;;;;;5045770;28;20055;-77
2023/12/17 14:25:40;;;;;;;3.97;3.65;;;;;;;;;;5046268;28;20031;-79
2023/12/17 14:28:06;;;;;;;3.45;3.15;;;;;;;;;;5047954;28;20052;-77
2023/12/17 14:30:32;;;;;;;2.67;2.35;;;;;;;;;;5044711;28;20063;-78
2023/12/17 14:32:57;;;;;;;4.22;3.83;;;;;;;;;;5045431;28;20029;-78
2023/12/17 14:35:23;;;;;;;5.90;5.25;;;;;;;;;;5044383;28;20362;-77
2023/12/17 14:37:48;;;;;;;8.80;4.00;;;;;;;;;;5045627;28;20709;-77
2023/12/17 14:40:14;;;;;;;10.32;3.72;;;;;;;;;;5043709;28;20021;-77
2023/12/17 14:42:40;;;;;;;4.07;3.63;;;;;;;;;;5044208;28;20029;-77
2023/12/17 14:45:07;;;;;;;3.47;3.20;;;;;;;;;;5043092;28;20048;-77
2023/12/17 14:47:33;;;;;;;5.78;3.13;;;;;;;;;;5045358;28;21458;-76
2023/12/17 14:49:59;;;;;;;3.38;2.45;;;;;;;;;;5045216;28;20025;-78
2023/12/17 14:52:24;;;;;;;3.90;2.78;;;;;;;;;;5046139;28;20087;-78
2023/12/17 14:54:49;;;;;;;2.28;1.95;;;;;;;;;;5045823;28;20039;-77
2023/12/17 14:57:15;;;;;;;1.25;1.08;;;;;;;;;;5048971;28;20560;-74
2023/12/17 14:59:40;;;;;;;2.55;2.35;;;;;;;;;;5047388;28;20040;-78